createdAt,value
2022-09-14T00:01:31.514Z,94666.91
2022-09-14T00:04:03.221Z,94660.81
2022-09-14T00:06:31.831Z,94651.13
2022-09-14T00:09:01.880Z,94623.19
2022-09-14T00:11:31.952Z,94621.13
2022-09-14T00:14:01.374Z,94622.69
2022-09-14T00:16:30.725Z,94616.31
2022-09-14T00:19:01.469Z,94624.63
2022-09-14T00:21:29.883Z,94632.00
2022-09-14T00:23:57.832Z,94635.13
2022-09-14T00:26:25.779Z,94633.38
2022-09-14T00:28:55.668Z,94636.34
2022-09-14T00:31:25.112Z,94630.09
2022-09-14T00:33:54.285Z,94625.56
2022-09-14T00:36:26.146Z,94631.66
2022-09-14T00:38:56.553Z,94630.09
2022-09-14T00:41:27.335Z,94629.09
2022-09-14T00:43:58.610Z,94635.03
2022-09-14T00:46:28.821Z,94641.13
2022-09-14T00:49:00.106Z,94632.06
2022-09-14T00:51:33.053Z,94630.50
2022-09-14T00:54:02.838Z,94628.13
2022-09-14T00:56:31.008Z,94632.81
2022-09-14T00:59:00.722Z,94637.03
2022-09-14T01:01:29.379Z,94629.22
2022-09-14T01:03:57.441Z,94630.31
2022-09-14T01:06:37.491Z,94633.44
2022-09-14T01:09:29.306Z,94627.19
2022-09-14T01:12:18.280Z,94632.50
2022-09-14T01:14:59.311Z,94630.31
2022-09-14T01:17:32.791Z,94632.38
2022-09-14T01:20:16.796Z,94622.22
2022-09-14T01:22:52.849Z,94625.34
2022-09-14T01:25:42.940Z,94619.25
2022-09-14T01:28:21.466Z,94619.88
2022-09-14T01:30:54.044Z,94620.66
2022-09-14T01:33:28.254Z,94617.50
2022-09-14T01:35:58.535Z,94619.06
2022-09-14T01:38:32.786Z,94620.91
2022-09-14T01:41:04.545Z,94620.91
2022-09-14T01:43:38.548Z,94620.91
2022-09-14T01:46:11.777Z,94617.00
2022-09-14T01:48:44.413Z,94621.94
2022-09-14T01:51:17.313Z,94624.91
2022-09-14T01:53:49.038Z,94625.75
2022-09-14T01:56:20.381Z,94629.13
2022-09-14T01:58:54.830Z,94628.50
2022-09-14T02:01:26.318Z,94631.28
2022-09-14T02:04:03.873Z,94645.06
2022-09-14T02:06:38.791Z,94634.44
2022-09-14T02:09:10.035Z,94639.13
2022-09-14T02:11:38.235Z,94635.03
2022-09-14T02:14:08.005Z,94643.31
2022-09-14T02:16:36.266Z,94651.56
2022-09-14T02:19:04.861Z,94646.44
2022-09-14T02:21:34.325Z,94646.78
2022-09-14T02:24:03.794Z,94637.00
2022-09-14T02:26:31.797Z,94635.38
2022-09-14T02:28:59.865Z,94633.94
2022-09-14T02:31:48.037Z,94635.03
2022-09-14T02:34:25.349Z,94626.94
2022-09-14T02:37:01.765Z,94622.84
2022-09-14T02:39:40.045Z,94620.84
2022-09-14T02:42:17.098Z,94609.56
2022-09-14T02:44:56.915Z,94605.94
2022-09-14T02:47:30.287Z,94597.50
2022-09-14T02:50:04.636Z,94593.59
2022-09-14T02:52:36.519Z,94591.25
2022-09-14T02:55:10.697Z,94584.34
2022-09-14T02:58:03.724Z,94580.06
2022-09-14T03:03:02.196Z,94583.16
2022-09-14T03:05:30.150Z,94574.09
2022-09-14T03:07:58.085Z,94577.06
2022-09-14T03:10:26.169Z,94568.81
2022-09-14T03:12:54.522Z,94564.88
2022-09-14T03:15:22.495Z,94557.81
2022-09-14T03:17:51.913Z,94554.09
2022-09-14T03:20:23.402Z,94549.56
2022-09-14T03:22:51.537Z,94555.84
2022-09-14T03:25:20.133Z,94560.53
2022-09-14T03:27:50.421Z,94555.22
2022-09-14T03:30:19.399Z,94563.50
2022-09-14T03:32:47.697Z,94583.59
2022-09-14T03:35:16.600Z,94581.06
2022-09-14T03:37:47.083Z,94577.09
2022-09-14T03:40:21.337Z,94567.41
2022-09-14T03:42:52.864Z,94557.88
2022-09-14T03:45:22.042Z,94546.78
2022-09-14T03:47:50.592Z,94540.97
2022-09-14T03:50:20.986Z,94558.47
2022-09-14T03:52:50.696Z,94560.03
2022-09-14T03:55:19.319Z,94559.19
2022-09-14T03:57:47.366Z,94554.97
2022-09-14T04:00:15.786Z,94558.13
2022-09-14T04:02:45.535Z,94558.13
2022-09-14T04:05:13.575Z,94567.16
2022-09-14T04:07:41.458Z,94594.66
2022-09-14T04:10:11.527Z,94605.97
2022-09-14T04:12:39.807Z,94610.41
2022-09-14T04:15:09.299Z,94624.28
2022-09-14T04:17:37.308Z,94631.22
2022-09-14T04:20:05.888Z,94627.13
2022-09-14T04:22:34.839Z,94633.97
2022-09-14T04:25:02.820Z,94648.13
2022-09-14T04:27:32.662Z,94643.22
2022-09-14T04:30:00.604Z,94644.19
2022-09-14T04:32:33.559Z,94644.19
2022-09-14T04:35:02.349Z,94652.94
2022-09-14T04:37:32.227Z,94645.38
2022-09-14T04:40:00.285Z,94640.28
2022-09-14T04:42:28.308Z,94614.56
2022-09-14T04:44:57.687Z,94612.19
2022-09-14T04:47:25.596Z,94622.41
2022-09-14T04:49:53.580Z,94630.84
2022-09-14T04:52:22.054Z,94625.13
2022-09-14T04:54:50.038Z,94618.84
2022-09-14T04:57:17.999Z,94614.16
2022-09-14T04:59:45.876Z,94609.44
2022-09-14T05:02:15.342Z,94571.09
2022-09-14T05:04:43.645Z,94576.84
2022-09-14T05:07:11.713Z,94564.19
2022-09-14T05:09:39.742Z,94572.25
2022-09-14T05:12:08.328Z,94578.13
2022-09-14T05:14:36.263Z,94573.31
2022-09-14T05:17:04.852Z,94574.28
2022-09-14T05:19:34.166Z,94580.38
2022-09-14T05:22:02.093Z,94583.81
2022-09-14T05:24:30.016Z,94582.13
2022-09-14T05:27:01.017Z,94574.56
2022-09-14T05:29:31.951Z,94588.81
2022-09-14T05:31:59.997Z,94586.66
2022-09-14T05:34:27.930Z,94602.25
2022-09-14T05:36:57.236Z,94604.91
2022-09-14T05:39:25.942Z,94598.22
2022-09-14T05:41:54.129Z,94601.38
2022-09-14T05:44:22.283Z,94604.13
2022-09-14T05:46:50.317Z,94616.31
2022-09-14T05:49:18.357Z,94622.59
2022-09-14T05:51:46.294Z,94618.84
2022-09-14T05:54:15.646Z,94618.38
2022-09-14T05:56:43.585Z,94627.41
2022-09-14T05:59:11.911Z,94634.75
2022-09-14T06:01:40.043Z,94637.31
2022-09-14T06:04:08.307Z,94638.88
2022-09-14T06:06:36.285Z,94631.03
2022-09-14T06:09:05.068Z,94621.63
2022-09-14T06:11:36.780Z,94635.00
2022-09-14T06:14:05.638Z,94651.69
2022-09-14T06:16:35.787Z,94669.34
2022-09-14T06:19:04.840Z,94670.34
2022-09-14T06:21:35.863Z,94675.03
2022-09-14T06:24:05.746Z,94689.88
2022-09-14T06:26:35.258Z,94691.44
2022-09-14T06:29:04.149Z,94700.78
2022-09-14T06:31:32.157Z,94689.38
2022-09-14T06:34:00.424Z,94687.41
2022-09-14T06:36:29.371Z,94700.59
2022-09-14T06:38:57.736Z,94706.50
2022-09-14T06:41:29.291Z,94711.03
2022-09-14T06:44:01.687Z,94689.81
2022-09-14T06:46:31.033Z,94698.81
2022-09-14T06:49:01.442Z,94695.66
2022-09-14T06:51:31.386Z,94704.13
2022-09-14T06:54:00.712Z,94719.53
2022-09-14T06:56:29.391Z,94722.78
2022-09-14T06:58:59.253Z,94729.66
2022-09-14T07:01:27.895Z,94727.00
2022-09-14T07:03:56.183Z,94735.75
2022-09-14T07:06:26.060Z,94736.53
2022-09-14T07:08:55.744Z,94755.59
2022-09-14T07:11:26.844Z,94749.31
2022-09-14T07:13:58.756Z,94755.22
2022-09-14T07:16:28.361Z,94748.94
2022-09-14T07:18:57.283Z,94737.84
2022-09-14T07:21:26.288Z,94728.31
2022-09-14T07:23:54.418Z,94726.16
2022-09-14T07:26:24.036Z,94716.03
2022-09-14T07:28:55.122Z,94712.88
2022-09-14T07:31:56.235Z,94708.16
2022-09-14T07:34:25.486Z,94708.53
2022-09-14T07:36:53.387Z,94699.22
2022-09-14T07:39:21.365Z,94706.66
2022-09-14T07:41:49.559Z,94699.81
2022-09-14T07:44:18.677Z,94679.19
2022-09-14T07:46:47.589Z,94686.16
2022-09-14T07:49:18.242Z,94687.63
2022-09-14T07:51:46.824Z,94681.63
2022-09-14T07:54:16.739Z,94687.81
2022-09-14T07:56:45.451Z,94683.50
2022-09-14T08:02:03.343Z,94651.78
2022-09-14T08:04:32.606Z,94653.66
2022-09-14T08:07:02.083Z,94630.88
2022-09-14T08:09:30.480Z,94616.25
2022-09-14T08:11:59.081Z,94615.63
2022-09-14T08:14:27.390Z,94603.94
2022-09-14T08:16:55.564Z,94610.22
2022-09-14T08:19:23.524Z,94611.69
2022-09-14T08:21:52.771Z,94609.84
2022-09-14T08:24:22.602Z,94634.19
2022-09-14T08:26:50.784Z,94630.69
2022-09-14T08:29:20.340Z,94634.56
2022-09-14T08:31:51.691Z,94651.66
2022-09-14T08:34:20.869Z,94660.88
2022-09-14T08:36:49.053Z,94669.50
2022-09-14T08:39:19.550Z,94660.47
2022-09-14T08:41:53.956Z,94661.69
2022-09-14T08:44:26.089Z,94660.34
2022-09-14T08:47:00.216Z,94653.47
2022-09-14T08:49:40.319Z,94657.72
2022-09-14T08:52:14.975Z,94654.88
2022-09-14T08:54:44.700Z,94650.50
2022-09-14T08:57:18.968Z,94647.34
2022-09-14T08:59:56.677Z,94642.66
2022-09-14T09:02:41.897Z,94642.25
2022-09-14T09:05:26.517Z,94644.78
2022-09-14T09:08:03.046Z,94648.50
2022-09-14T09:10:34.801Z,94659.72
2022-09-14T09:13:05.879Z,94661.88
2022-09-14T09:15:36.990Z,94657.78
2022-09-14T09:18:08.799Z,94651.47
2022-09-14T09:20:41.576Z,94644.22
2022-09-14T09:23:14.441Z,94626.22
2022-09-14T09:25:52.990Z,94617.09
2022-09-14T09:28:22.337Z,94605.25
2022-09-14T09:30:50.623Z,94594.84
2022-09-14T09:33:22.025Z,94590.78
2022-09-14T09:36:03.107Z,94588.16
2022-09-14T09:38:32.430Z,94569.44
2022-09-14T09:41:08.762Z,94566.31
2022-09-14T09:43:49.417Z,94567.31
2022-09-14T09:46:19.084Z,94579.84
2022-09-14T09:48:48.292Z,94576.09
2022-09-14T09:51:23.550Z,94582.63
2022-09-14T09:53:54.557Z,94584.97
2022-09-14T09:56:26.881Z,94583.22
2022-09-14T09:58:55.000Z,94571.25
2022-09-14T10:01:28.605Z,94564.03
2022-09-14T10:04:04.955Z,94571.25
2022-09-14T10:06:33.427Z,94567.88
2022-09-14T10:09:01.456Z,94574.34
2022-09-14T10:11:34.432Z,94570.31
2022-09-14T10:14:02.454Z,94570.97
2022-09-14T10:16:37.821Z,94558.28
2022-09-14T10:19:14.992Z,94562.47
2022-09-14T10:22:24.266Z,94556.88
2022-09-14T10:24:59.474Z,94564.44
2022-09-14T10:27:39.730Z,94563.13
2022-09-14T10:30:13.699Z,94558.94
2022-09-14T10:32:44.580Z,94570.56
2022-09-14T10:35:17.230Z,94575.09
2022-09-14T10:37:58.160Z,94567.28
2022-09-14T10:40:34.149Z,94571.53
2022-09-14T10:43:14.688Z,94565.75
2022-09-14T10:45:49.751Z,94562.63
2022-09-14T10:48:32.008Z,94554.47
2022-09-14T10:51:10.646Z,94546.50
2022-09-14T10:53:54.446Z,94535.56
2022-09-14T10:56:28.415Z,94550.88
2022-09-14T10:59:11.089Z,94534.94
2022-09-14T11:01:55.393Z,94527.41
2022-09-14T11:04:44.134Z,94536.84
2022-09-14T11:07:16.765Z,94531.69
2022-09-14T11:09:55.736Z,94528.72
2022-09-14T11:12:31.671Z,94526.50
2022-09-14T11:15:09.467Z,94534.66
2022-09-14T11:18:01.476Z,94529.97
2022-09-14T11:20:42.774Z,94530.28
2022-09-14T11:23:28.659Z,94521.50
2022-09-14T11:26:01.263Z,94520.56
2022-09-14T11:28:34.327Z,94510.19
2022-09-14T11:31:08.664Z,94518.47
2022-09-14T11:33:41.110Z,94519.56
2022-09-14T11:36:17.448Z,94520.34
2022-09-14T11:38:49.130Z,94535.53
2022-09-14T11:41:24.075Z,94530.22
2022-09-14T11:43:55.491Z,94536.19
2022-09-14T11:46:29.395Z,94545.56
2022-09-14T11:49:04.722Z,94543.25
2022-09-14T11:51:37.501Z,94538.19
2022-09-14T11:54:13.064Z,94535.66
2022-09-14T11:56:41.206Z,94544.88
2022-09-14T11:59:38.625Z,94551.28
2022-09-14T12:02:52.506Z,94550.50
2022-09-14T12:05:32.495Z,94555.19
2022-09-14T12:08:19.930Z,94556.13
2022-09-14T12:11:04.849Z,94553.84
2022-09-14T12:13:33.288Z,94554.94
2022-09-14T12:16:07.951Z,94550.34
2022-09-14T12:18:38.771Z,94548.72
2022-09-14T12:21:09.420Z,94547.69
2022-09-14T12:23:46.568Z,94543.91
2022-09-14T12:26:33.751Z,94539.50
2022-09-14T12:29:31.742Z,94545.63
2022-09-14T12:32:25.011Z,94537.53
2022-09-14T12:35:26.420Z,94537.94
2022-09-14T12:37:54.716Z,94528.94
2022-09-14T12:40:36.345Z,94532.97
2022-09-14T12:43:50.327Z,94522.75
2022-09-14T12:46:48.576Z,94530.16
2022-09-14T12:49:38.769Z,94525.41
2022-09-14T12:52:27.541Z,94521.28
2022-09-14T12:55:06.641Z,94515.69
2022-09-14T12:57:44.921Z,94511.38
2022-09-14T13:00:15.561Z,94509.16
2022-09-14T13:03:20.283Z,94513.16
2022-09-14T13:05:49.853Z,94504.81
2022-09-14T13:08:23.474Z,94487.00
2022-09-14T13:10:53.273Z,94481.72
2022-09-14T13:13:25.091Z,94489.56
2022-09-14T13:15:56.909Z,94474.88
2022-09-14T13:18:36.303Z,94470.69
2022-09-14T13:21:19.676Z,94473.34
2022-09-14T13:23:48.322Z,94469.81
2022-09-14T13:26:20.276Z,94459.53
2022-09-14T13:28:50.550Z,94461.78
2022-09-14T13:31:22.544Z,94446.84
2022-09-14T13:33:52.537Z,94453.56
2022-09-14T13:36:26.265Z,94452.44
2022-09-14T13:38:55.386Z,94445.72
2022-09-14T13:41:24.621Z,94442.16
2022-09-14T13:43:55.467Z,94430.22
2022-09-14T13:46:25.154Z,94423.63
2022-09-14T13:48:54.144Z,94433.97
2022-09-14T13:51:27.020Z,94417.59
2022-09-14T13:53:57.010Z,94411.53
2022-09-14T13:56:30.959Z,94412.78
2022-09-14T13:59:22.448Z,94412.09
2022-09-14T14:01:57.320Z,94417.09
2022-09-14T14:04:35.348Z,94422.03
2022-09-14T14:07:09.247Z,94425.44
2022-09-14T14:09:43.655Z,94424.13
2022-09-14T14:12:13.377Z,94420.31
2022-09-14T14:14:41.394Z,94427.03
2022-09-14T14:17:36.734Z,94427.22
2022-09-14T14:20:31.273Z,94428.59
2022-09-14T14:23:04.306Z,94424.00
2022-09-14T14:25:34.728Z,94425.22
2022-09-14T14:28:04.411Z,94423.00
2022-09-14T14:30:34.877Z,94424.75
2022-09-14T14:33:02.906Z,94424.31
2022-09-14T14:35:32.467Z,94416.28
2022-09-14T14:38:01.795Z,94420.50
2022-09-14T14:40:29.951Z,94418.94
2022-09-14T14:43:00.066Z,94415.81
2022-09-14T14:45:28.753Z,94418.56
2022-09-14T14:47:57.173Z,94412.22
2022-09-14T14:50:27.159Z,94414.66
2022-09-14T14:52:55.514Z,94406.19
2022-09-14T14:55:27.499Z,94405.84
2022-09-14T14:58:00.751Z,94402.84
2022-09-14T15:00:31.953Z,94395.63
2022-09-14T15:03:00.324Z,94394.63
2022-09-14T15:05:28.605Z,94387.06
2022-09-14T15:07:56.543Z,94394.06
2022-09-14T15:10:27.774Z,94389.28
2022-09-14T15:12:55.894Z,94382.16
2022-09-14T15:15:25.960Z,94378.38
2022-09-14T15:17:55.256Z,94384.88
2022-09-14T15:20:23.275Z,94382.53
2022-09-14T15:22:51.262Z,94383.88
2022-09-14T15:25:20.674Z,94375.47
2022-09-14T15:27:50.390Z,94384.81
2022-09-14T16:21:35.374Z,94399.94
2022-09-14T16:24:05.956Z,94411.91
2022-09-14T16:26:36.144Z,94400.97
2022-09-14T16:29:05.829Z,94397.56
2022-09-14T16:31:35.532Z,94398.59
2022-09-14T16:34:06.655Z,94417.19
2022-09-14T16:36:38.989Z,94408.16
2022-09-14T16:39:10.542Z,94410.38
2022-09-14T16:41:40.552Z,94410.72
2022-09-14T16:44:11.432Z,94403.72
2022-09-14T16:46:39.432Z,94401.38
2022-09-14T16:49:07.458Z,94400.44
2022-09-14T16:51:37.075Z,94390.25
2022-09-14T16:54:05.135Z,94398.88
2022-09-14T16:56:35.528Z,94392.59
2022-09-14T16:59:05.508Z,94393.88
2022-09-14T17:01:36.039Z,94402.50
2022-09-14T17:04:08.431Z,94398.94
2022-09-14T17:06:43.502Z,94407.09
2022-09-14T17:09:14.082Z,94416.19
2022-09-14T17:11:42.716Z,94426.34
2022-09-14T17:14:16.140Z,94427.13
2022-09-14T17:16:44.702Z,94431.53
2022-09-14T17:19:13.723Z,94429.97
2022-09-14T17:21:44.519Z,94429.03
2022-09-14T17:24:14.025Z,94438.13
2022-09-14T17:26:42.639Z,94439.69
2022-09-14T17:29:11.483Z,94441.25
2022-09-14T17:31:42.813Z,94432.97
2022-09-14T17:34:12.806Z,94434.84
2022-09-14T17:36:42.337Z,94442.97
2022-09-14T17:39:12.524Z,94439.06
2022-09-14T17:41:41.429Z,94429.19
2022-09-14T17:44:11.980Z,94443.44
2022-09-14T17:46:48.159Z,94451.13
2022-09-14T17:49:20.697Z,94450.34
2022-09-14T17:51:50.391Z,94450.63
2022-09-14T17:54:19.192Z,94438.69
2022-09-14T17:56:47.119Z,94437.16
2022-09-14T17:59:17.540Z,94433.75
2022-09-14T18:01:45.475Z,94435.31
2022-09-14T18:04:15.369Z,94432.00
2022-09-14T18:06:44.800Z,94435.44
2022-09-14T18:09:16.269Z,94451.28
2022-09-14T18:11:44.783Z,94463.19
2022-09-14T18:14:14.003Z,94481.09
2022-09-14T18:16:42.718Z,94478.59
2022-09-14T18:19:11.093Z,94477.81
2022-09-14T18:21:39.321Z,94474.03
2022-09-14T18:24:07.570Z,94471.06
2022-09-14T18:26:38.455Z,94470.13
2022-09-14T18:29:06.458Z,94463.56
2022-09-14T18:31:34.497Z,94475.03
2022-09-14T18:34:02.550Z,94475.94
2022-09-14T18:36:30.929Z,94462.94
2022-09-14T18:38:59.198Z,94464.81
2022-09-14T18:41:29.108Z,94458.59
2022-09-14T18:43:59.341Z,94464.03
2022-09-14T18:46:28.589Z,94458.41
2022-09-14T18:48:58.538Z,94467.66
2022-09-14T18:51:26.988Z,94480.16
2022-09-14T18:53:58.383Z,94496.44
2022-09-14T18:56:26.750Z,94495.66
2022-09-14T18:58:54.749Z,94471.06
2022-09-14T19:01:24.175Z,94470.13
2022-09-14T19:03:53.839Z,94470.47
2022-09-14T19:06:21.967Z,94488.44
2022-09-14T19:08:50.843Z,94502.66
2022-09-14T19:11:20.861Z,94510.94
2022-09-14T19:13:50.821Z,94540.47
2022-09-14T19:16:20.205Z,94544.06
2022-09-14T19:18:50.497Z,94512.78
2022-09-14T19:21:23.465Z,94507.22
2022-09-14T19:23:57.117Z,94480.78
2022-09-14T19:26:25.161Z,94439.53
2022-09-14T19:28:53.291Z,94441.81
2022-09-14T19:31:23.492Z,94461.63
2022-09-14T19:33:53.239Z,94472.09
2022-09-14T19:36:23.497Z,94476.94
2022-09-14T19:38:53.185Z,94493.47
2022-09-14T19:41:22.186Z,94505.06
2022-09-14T19:43:50.772Z,94525.06
2022-09-14T19:46:21.409Z,94528.69
2022-09-14T19:48:49.356Z,94538.19
2022-09-14T19:51:20.510Z,94549.13
2022-09-14T19:53:50.879Z,94577.91
2022-09-14T19:56:20.853Z,94612.78
2022-09-14T19:58:50.493Z,94633.41
2022-09-14T20:01:20.753Z,94636.56
2022-09-14T20:03:50.226Z,94675.47
2022-09-14T20:06:23.325Z,94676.81
2022-09-14T20:08:53.185Z,94694.25
2022-09-14T20:11:23.454Z,94689.22
2022-09-14T20:13:54.027Z,94693.25
2022-09-14T20:16:24.838Z,94712.97
2022-09-14T20:18:53.132Z,94718.66
2022-09-14T20:21:24.157Z,94691.41
2022-09-14T20:24:14.646Z,94717.72
2022-09-14T20:26:44.042Z,94746.72
2022-09-14T20:29:12.218Z,94725.88
2022-09-14T20:31:40.317Z,94690.97
2022-09-14T20:34:08.506Z,94684.31
2022-09-14T20:36:37.957Z,94674.00
2022-09-14T20:39:06.400Z,94687.19
2022-09-14T20:41:36.699Z,94716.25
2022-09-14T20:44:05.553Z,94725.69
2022-09-14T20:46:39.602Z,94746.28
2022-09-14T20:49:11.352Z,94759.44
2022-09-14T20:51:41.327Z,94778.78
2022-09-14T20:54:12.154Z,94776.38
2022-09-14T20:56:40.494Z,94770.03
2022-09-14T20:59:10.930Z,94775.88
2022-09-14T21:01:40.683Z,94765.78
2022-09-14T21:04:11.338Z,94766.75
2022-09-14T21:06:47.366Z,94781.56
2022-09-14T21:09:18.101Z,94787.38
2022-09-14T21:11:47.061Z,94785.22
2022-09-14T21:14:15.896Z,94780.91
2022-09-14T21:16:46.221Z,94785.38
2022-09-14T21:19:16.731Z,94785.88
2022-09-14T21:21:46.907Z,94785.31
2022-09-14T21:24:16.314Z,94781.09
2022-09-14T21:26:45.420Z,94785.31
2022-09-14T21:29:16.111Z,94780.09
2022-09-14T21:31:45.564Z,94787.66
2022-09-14T21:34:14.256Z,94777.72
2022-09-14T21:36:44.593Z,94786.66
2022-09-14T21:39:16.478Z,94767.72
2022-09-14T21:41:45.396Z,94764.16
2022-09-14T21:44:14.375Z,94758.88
2022-09-14T21:46:43.276Z,94753.06
2022-09-14T21:49:14.928Z,94760.50
2022-09-14T21:51:44.482Z,94781.63
2022-09-14T21:54:14.849Z,94784.19
2022-09-14T21:56:44.948Z,94782.63
2022-09-14T21:59:15.021Z,94793.22
2022-09-14T22:01:43.808Z,94788.47
2022-09-14T22:04:15.154Z,94797.50
2022-09-14T22:06:45.102Z,94795.44
2022-09-14T22:09:16.115Z,94796.50
2022-09-14T22:11:44.649Z,94798.66
2022-09-14T22:14:14.687Z,94810.91
2022-09-14T22:16:43.413Z,94804.13
2022-09-14T22:19:15.571Z,94800.91
2022-09-14T22:21:43.887Z,94806.25
2022-09-14T22:24:15.261Z,94809.47
2022-09-14T22:26:44.181Z,94825.94
2022-09-14T22:29:12.960Z,94840.31
2022-09-14T22:31:42.068Z,94852.88
2022-09-14T22:34:10.261Z,94868.78
2022-09-14T22:36:38.474Z,94885.84
2022-09-14T22:39:07.030Z,94891.19
2022-09-14T22:41:36.840Z,94876.91
2022-09-14T22:44:05.755Z,94850.31
2022-09-14T22:46:34.127Z,94826.56
2022-09-14T22:49:02.240Z,94824.50
2022-09-14T22:51:30.892Z,94838.41
2022-09-14T22:53:58.804Z,94831.19
2022-09-14T22:56:28.490Z,94821.63
2022-09-14T22:58:58.387Z,94821.97
2022-09-14T23:01:28.593Z,94831.75
2022-09-14T23:03:58.487Z,94825.88
2022-09-14T23:06:27.801Z,94828.50
2022-09-14T23:08:55.704Z,94816.34
2022-09-14T23:11:23.675Z,94815.78
2022-09-14T23:13:51.668Z,94812.56
2022-09-14T23:16:23.197Z,94802.47
2022-09-14T23:18:52.319Z,94782.44
2022-09-14T23:21:21.271Z,94778.84
2022-09-14T23:23:52.559Z,94772.03
2022-09-14T23:26:21.184Z,94766.03
2022-09-14T23:28:53.539Z,94755.22
2022-09-14T23:31:23.511Z,94748.97
2022-09-14T23:33:52.777Z,94745.19
2022-09-14T23:36:22.137Z,94743.88
2022-09-14T23:38:50.250Z,94738.59
2022-09-14T23:41:19.149Z,94734.97
2022-09-14T23:43:47.579Z,94722.97
2022-09-14T23:46:16.253Z,94709.41
2022-09-14T23:48:45.979Z,94693.75
2022-09-14T23:51:14.905Z,94698.97
2022-09-14T23:53:43.913Z,94729.88
2022-09-14T23:56:12.884Z,94740.03
2022-09-14T23:58:41.871Z,94729.06
